sensor_id;sensor_type;location;lat;lon;timestamp;pressure;altitude;pressure_sealevel;temperature;humidity
27729;BME280;15126;42.186;24.340;2023-05-20T00:00:07;99535.47;;;15.74;85.08
27729;BME280;15126;42.186;24.340;2023-05-20T00:02:33;99533.00;;;15.76;84.76
27729;BME280;15126;42.186;24.340;2023-05-20T00:05:00;99531.72;;;15.77;84.40
27729;BME280;15126;42.186;24.340;2023-05-20T00:07:27;99521.41;;;15.74;84.69
27729;BME280;15126;42.186;24.340;2023-05-20T00:09:55;99515.47;;;15.72;84.79
27729;BME280;15126;42.186;24.340;2023-05-20T00:12:22;99517.03;;;15.73;84.78
27729;BME280;15126;42.186;24.340;2023-05-20T00:14:49;99521.38;;;15.65;84.53
27729;BME280;15126;42.186;24.340;2023-05-20T00:17:16;99517.78;;;15.64;84.60
27729;BME280;15126;42.186;24.340;2023-05-20T00:19:43;99518.50;;;15.56;84.06
27729;BME280;15126;42.186;24.340;2023-05-20T00:22:10;99526.59;;;15.32;85.15
27729;BME280;15126;42.186;24.340;2023-05-20T00:24:36;99519.47;;;15.40;84.61
27729;BME280;15126;42.186;24.340;2023-05-20T00:27:05;99519.91;;;15.38;84.68
27729;BME280;15126;42.186;24.340;2023-05-20T00:29:32;99517.19;;;15.26;85.77
27729;BME280;15126;42.186;24.340;2023-05-20T00:31:59;99517.31;;;15.22;86.55
27729;BME280;15126;42.186;24.340;2023-05-20T00:34:26;99504.25;;;15.28;86.16
27729;BME280;15126;42.186;24.340;2023-05-20T00:36:52;99491.50;;;15.15;86.08
27729;BME280;15126;42.186;24.340;2023-05-20T00:39:19;99498.50;;;15.10;86.19
27729;BME280;15126;42.186;24.340;2023-05-20T00:41:46;99498.69;;;15.16;86.18
27729;BME280;15126;42.186;24.340;2023-05-20T00:44:14;99493.41;;;15.18;86.01
27729;BME280;15126;42.186;24.340;2023-05-20T00:46:43;99498.50;;;15.10;86.17
27729;BME280;15126;42.186;24.340;2023-05-20T00:49:10;99503.06;;;15.17;85.65
27729;BME280;15126;42.186;24.340;2023-05-20T00:51:37;99502.75;;;15.15;85.59
27729;BME280;15126;42.186;24.340;2023-05-20T00:54:04;99492.22;;;15.06;85.94
27729;BME280;15126;42.186;24.340;2023-05-20T00:56:32;99495.38;;;15.08;85.85
27729;BME280;15126;42.186;24.340;2023-05-20T00:58:59;99495.38;;;15.08;85.79
27729;BME280;15126;42.186;24.340;2023-05-20T01:01:27;99496.41;;;15.02;85.88
27729;BME280;15126;42.186;24.340;2023-05-20T01:03:54;99492.38;;;15.03;85.87
27729;BME280;15126;42.186;24.340;2023-05-20T01:06:20;99496.38;;;14.80;86.43
27729;BME280;15126;42.186;24.340;2023-05-20T01:08:47;99491.66;;;14.77;86.67
27729;BME280;15126;42.186;24.340;2023-05-20T01:11:19;99489.13;;;14.70;86.89
27729;BME280;15126;42.186;24.340;2023-05-20T01:13:53;99477.91;;;14.70;87.02
27729;BME280;15126;42.186;24.340;2023-05-20T01:16:23;99487.63;;;14.78;87.05
27729;BME280;15126;42.186;24.340;2023-05-20T01:18:54;99489.84;;;14.83;86.52
27729;BME280;15126;42.186;24.340;2023-05-20T01:21:22;99488.34;;;14.91;86.53
27729;BME280;15126;42.186;24.340;2023-05-20T01:23:50;99485.22;;;14.89;86.28
27729;BME280;15126;42.186;24.340;2023-05-20T01:26:17;99492.00;;;15.01;86.21
27729;BME280;15126;42.186;24.340;2023-05-20T01:28:46;99486.41;;;15.01;86.06
27729;BME280;15126;42.186;24.340;2023-05-20T01:31:23;99494.69;;;15.04;85.94
27729;BME280;15126;42.186;24.340;2023-05-20T01:33:55;99490.47;;;15.00;86.04
27729;BME280;15126;42.186;24.340;2023-05-20T01:36:22;99484.97;;;14.96;86.24
27729;BME280;15126;42.186;24.340;2023-05-20T01:38:52;99491.09;;;14.82;86.75
27729;BME280;15126;42.186;24.340;2023-05-20T01:41:20;99487.25;;;14.88;86.20
27729;BME280;15126;42.186;24.340;2023-05-20T01:43:49;99488.03;;;14.89;86.10
27729;BME280;15126;42.186;24.340;2023-05-20T01:46:16;99485.88;;;14.93;86.09
27729;BME280;15126;42.186;24.340;2023-05-20T01:48:43;99481.50;;;14.92;86.08
27729;BME280;15126;42.186;24.340;2023-05-20T01:51:09;99484.34;;;14.79;86.19
27729;BME280;15126;42.186;24.340;2023-05-20T01:53:36;99480.34;;;14.68;87.21
27729;BME280;15126;42.186;24.340;2023-05-20T01:56:05;99474.09;;;14.64;87.09
27729;BME280;15126;42.186;24.340;2023-05-20T01:58:32;99479.53;;;14.46;88.06
27729;BME280;15126;42.186;24.340;2023-05-20T02:00:59;99477.41;;;14.37;88.65
27729;BME280;15126;42.186;24.340;2023-05-20T02:03:26;99480.66;;;14.48;87.96
27729;BME280;15126;42.186;24.340;2023-05-20T02:05:53;99474.03;;;14.29;89.24
27729;BME280;15126;42.186;24.340;2023-05-20T02:08:19;99478.97;;;14.25;89.76
27729;BME280;15126;42.186;24.340;2023-05-20T02:10:47;99470.56;;;14.25;89.81
27729;BME280;15126;42.186;24.340;2023-05-20T02:13:15;99467.19;;;14.30;89.21
27729;BME280;15126;42.186;24.340;2023-05-20T02:15:42;99462.94;;;14.39;88.71
27729;BME280;15126;42.186;24.340;2023-05-20T02:18:09;99477.75;;;14.39;88.92
27729;BME280;15126;42.186;24.340;2023-05-20T02:20:37;99476.38;;;14.44;88.40
27729;BME280;15126;42.186;24.340;2023-05-20T02:23:03;99471.34;;;14.39;88.59
27729;BME280;15126;42.186;24.340;2023-05-20T02:25:31;99467.00;;;14.38;88.19
27729;BME280;15126;42.186;24.340;2023-05-20T02:27:57;99472.94;;;14.40;88.43
27729;BME280;15126;42.186;24.340;2023-05-20T02:30:26;99473.25;;;14.42;88.46
27729;BME280;15126;42.186;24.340;2023-05-20T02:32:53;99467.31;;;14.40;88.32
27729;BME280;15126;42.186;24.340;2023-05-20T02:35:19;99463.50;;;14.34;88.26
27729;BME280;15126;42.186;24.340;2023-05-20T02:37:46;99470.69;;;14.35;88.32
27729;BME280;15126;42.186;24.340;2023-05-20T02:40:13;99472.94;;;14.40;87.98
27729;BME280;15126;42.186;24.340;2023-05-20T02:42:40;99469.91;;;14.34;87.70
27729;BME280;15126;42.186;24.340;2023-05-20T02:45:07;99469.34;;;14.26;88.08
27729;BME280;15126;42.186;24.340;2023-05-20T02:47:36;99466.53;;;14.26;87.46
27729;BME280;15126;42.186;24.340;2023-05-20T02:50:03;99473.38;;;14.25;87.21
27729;BME280;15126;42.186;24.340;2023-05-20T02:52:30;99476.06;;;14.29;86.78
27729;BME280;15126;42.186;24.340;2023-05-20T02:54:57;99478.09;;;14.28;86.65
27729;BME280;15126;42.186;24.340;2023-05-20T02:57:24;99469.44;;;14.23;86.28
27729;BME280;15126;42.186;24.340;2023-05-20T02:59:51;99472.16;;;14.26;86.00
27729;BME280;15126;42.186;24.340;2023-05-20T03:02:18;99466.41;;;14.30;86.44
27729;BME280;15126;42.186;24.340;2023-05-20T03:04:46;99467.28;;;14.27;85.72
27729;BME280;15126;42.186;24.340;2023-05-20T03:07:14;99473.50;;;14.09;86.50
27729;BME280;15126;42.186;24.340;2023-05-20T03:09:43;99471.25;;;13.92;87.09
27729;BME280;15126;42.186;24.340;2023-05-20T03:12:10;99476.19;;;14.00;87.11
27729;BME280;15126;42.186;24.340;2023-05-20T03:14:37;99478.31;;;14.09;87.08
27729;BME280;15126;42.186;24.340;2023-05-20T03:17:04;99480.13;;;14.15;86.57
27729;BME280;15126;42.186;24.340;2023-05-20T03:19:31;99484.47;;;14.16;86.22
27729;BME280;15126;42.186;24.340;2023-05-20T03:21:59;99484.84;;;14.18;86.29
27729;BME280;15126;42.186;24.340;2023-05-20T03:24:26;99474.28;;;14.22;86.38
27729;BME280;15126;42.186;24.340;2023-05-20T03:26:53;99472.03;;;14.17;86.46
27729;BME280;15126;42.186;24.340;2023-05-20T03:29:20;99468.78;;;14.19;86.43
27729;BME280;15126;42.186;24.340;2023-05-20T03:31:47;99464.56;;;14.02;86.53
27729;BME280;15126;42.186;24.340;2023-05-20T03:34:14;99463.41;;;13.87;87.30
27729;BME280;15126;42.186;24.340;2023-05-20T03:36:41;99450.31;;;13.96;87.00
27729;BME280;15126;42.186;24.340;2023-05-20T03:39:09;99462.19;;;14.00;86.90
27729;BME280;15126;42.186;24.340;2023-05-20T03:41:36;99459.16;;;14.07;86.67
27729;BME280;15126;42.186;24.340;2023-05-20T03:44:03;99460.28;;;14.10;86.85
27729;BME280;15126;42.186;24.340;2023-05-20T03:46:30;99459.50;;;14.09;85.94
27729;BME280;15126;42.186;24.340;2023-05-20T03:48:58;99466.88;;;14.03;85.43
27729;BME280;15126;42.186;24.340;2023-05-20T03:51:26;99473.63;;;13.68;87.22
27729;BME280;15126;42.186;24.340;2023-05-20T03:53:53;99476.19;;;13.62;87.51
27729;BME280;15126;42.186;24.340;2023-05-20T03:56:21;99479.91;;;13.72;88.17
27729;BME280;15126;42.186;24.340;2023-05-20T03:58:48;99483.72;;;13.53;88.74
27729;BME280;15126;42.186;24.340;2023-05-20T04:01:15;99481.25;;;13.55;88.76
27729;BME280;15126;42.186;24.340;2023-05-20T04:03:42;99478.56;;;13.64;88.61
27729;BME280;15126;42.186;24.340;2023-05-20T04:06:09;99488.09;;;13.79;87.51
27729;BME280;15126;42.186;24.340;2023-05-20T04:08:36;99500.34;;;14.10;87.61
27729;BME280;15126;42.186;24.340;2023-05-20T04:11:02;99500.78;;;14.34;85.32
27729;BME280;15126;42.186;24.340;2023-05-20T04:13:31;99509.75;;;14.76;84.46
27729;BME280;15126;42.186;24.340;2023-05-20T04:15:58;99504.00;;;15.35;81.14
27729;BME280;15126;42.186;24.340;2023-05-20T04:18:26;99517.78;;;15.95;79.22
27729;BME280;15126;42.186;24.340;2023-05-20T04:20:54;99524.09;;;16.57;77.15
27729;BME280;15126;42.186;24.340;2023-05-20T04:23:21;99521.66;;;17.13;73.85
27729;BME280;15126;42.186;24.340;2023-05-20T04:25:48;99535.72;;;17.59;73.29
27729;BME280;15126;42.186;24.340;2023-05-20T04:28:15;99535.47;;;17.99;71.87
27729;BME280;15126;42.186;24.340;2023-05-20T04:30:43;99535.00;;;18.33;71.19
27729;BME280;15126;42.186;24.340;2023-05-20T04:33:11;99534.59;;;18.58;67.60
27729;BME280;15126;42.186;24.340;2023-05-20T04:35:39;99529.88;;;18.79;68.76
27729;BME280;15126;42.186;24.340;2023-05-20T04:38:07;99524.09;;;18.97;66.89
27729;BME280;15126;42.186;24.340;2023-05-20T04:40:33;99531.63;;;18.76;66.28
27729;BME280;15126;42.186;24.340;2023-05-20T04:43:00;99528.75;;;18.85;67.87
27729;BME280;15126;42.186;24.340;2023-05-20T04:45:28;99525.19;;;18.52;67.72
27729;BME280;15126;42.186;24.340;2023-05-20T04:47:56;99521.81;;;18.30;67.82
27729;BME280;15126;42.186;24.340;2023-05-20T04:50:23;99526.00;;;18.43;68.28
27729;BME280;15126;42.186;24.340;2023-05-20T04:52:50;99517.22;;;18.41;68.72
27729;BME280;15126;42.186;24.340;2023-05-20T04:55:17;99497.38;;;18.27;69.31
27729;BME280;15126;42.186;24.340;2023-05-20T04:57:44;99508.09;;;18.14;68.34
27729;BME280;15126;42.186;24.340;2023-05-20T05:00:12;99510.00;;;18.08;69.64
27729;BME280;15126;42.186;24.340;2023-05-20T05:02:39;99503.00;;;18.27;71.96
27729;BME280;15126;42.186;24.340;2023-05-20T05:05:07;99496.97;;;18.43;69.83
27729;BME280;15126;42.186;24.340;2023-05-20T05:07:34;99498.16;;;18.60;73.04
27729;BME280;15126;42.186;24.340;2023-05-20T05:10:01;99499.09;;;18.81;70.46
27729;BME280;15126;42.186;24.340;2023-05-20T05:12:28;99508.59;;;18.92;68.19
27729;BME280;15126;42.186;24.340;2023-05-20T05:14:55;99510.84;;;18.88;68.66
27729;BME280;15126;42.186;24.340;2023-05-20T05:17:23;99505.19;;;18.88;68.38
27729;BME280;15126;42.186;24.340;2023-05-20T05:19:50;99510.16;;;18.70;69.50
27729;BME280;15126;42.186;24.340;2023-05-20T05:22:18;99504.34;;;18.73;68.03
27729;BME280;15126;42.186;24.340;2023-05-20T05:24:45;99505.53;;;18.81;68.02
27729;BME280;15126;42.186;24.340;2023-05-20T05:27:11;99497.72;;;18.76;69.02
27729;BME280;15126;42.186;24.340;2023-05-20T05:29:38;99499.09;;;19.05;69.97
27729;BME280;15126;42.186;24.340;2023-05-20T05:32:05;99500.16;;;19.22;71.61
27729;BME280;15126;42.186;24.340;2023-05-20T05:34:32;99492.75;;;19.24;69.64
27729;BME280;15126;42.186;24.340;2023-05-20T05:36:59;99503.88;;;19.28;70.00
27729;BME280;15126;42.186;24.340;2023-05-20T05:39:27;99500.63;;;19.44;70.58
27729;BME280;15126;42.186;24.340;2023-05-20T05:41:54;99504.94;;;19.54;69.90
27729;BME280;15126;42.186;24.340;2023-05-20T05:44:21;99497.53;;;19.56;69.41
27729;BME280;15126;42.186;24.340;2023-05-20T05:46:48;99497.41;;;19.80;69.35
27729;BME280;15126;42.186;24.340;2023-05-20T05:49:15;99493.78;;;19.80;68.70
27729;BME280;15126;42.186;24.340;2023-05-20T05:51:41;99498.84;;;19.90;67.52
27729;BME280;15126;42.186;24.340;2023-05-20T05:54:08;99496.25;;;19.72;66.65
27729;BME280;15126;42.186;24.340;2023-05-20T05:56:36;99484.22;;;19.77;64.07
27729;BME280;15126;42.186;24.340;2023-05-20T05:59:03;99489.47;;;19.84;65.70
27729;BME280;15126;42.186;24.340;2023-05-20T06:01:30;99481.88;;;19.90;63.81
27729;BME280;15126;42.186;24.340;2023-05-20T06:03:57;99477.22;;;19.73;64.59
27729;BME280;15126;42.186;24.340;2023-05-20T06:06:24;99480.22;;;19.84;64.72
27729;BME280;15126;42.186;24.340;2023-05-20T06:08:51;99473.59;;;20.22;65.60
27729;BME280;15126;42.186;24.340;2023-05-20T06:11:17;99485.22;;;20.38;64.80
27729;BME280;15126;42.186;24.340;2023-05-20T06:13:46;99486.91;;;20.50;64.71
27729;BME280;15126;42.186;24.340;2023-05-20T06:16:13;99486.78;;;20.79;63.79
27729;BME280;15126;42.186;24.340;2023-05-20T06:18:41;99480.75;;;20.92;64.79
27729;BME280;15126;42.186;24.340;2023-05-20T06:21:07;99473.28;;;21.35;66.63
27729;BME280;15126;42.186;24.340;2023-05-20T06:23:34;99484.78;;;21.52;62.05
27729;BME280;15126;42.186;24.340;2023-05-20T06:26:01;99469.50;;;21.75;62.19
27729;BME280;15126;42.186;24.340;2023-05-20T06:28:28;99473.47;;;22.14;63.20
27729;BME280;15126;42.186;24.340;2023-05-20T06:30:56;99470.25;;;22.38;61.92
27729;BME280;15126;42.186;24.340;2023-05-20T06:33:23;99479.91;;;22.57;60.56
27729;BME280;15126;42.186;24.340;2023-05-20T06:35:51;99474.63;;;22.81;61.29
27729;BME280;15126;42.186;24.340;2023-05-20T06:38:18;99475.22;;;23.02;57.30
27729;BME280;15126;42.186;24.340;2023-05-20T06:40:45;99470.19;;;22.75;54.92
27729;BME280;15126;42.186;24.340;2023-05-20T06:43:12;99459.56;;;22.70;55.92
27729;BME280;15126;42.186;24.340;2023-05-20T06:45:38;99460.97;;;22.85;55.98
27729;BME280;15126;42.186;24.340;2023-05-20T06:48:07;99456.88;;;23.03;57.13
27729;BME280;15126;42.186;24.340;2023-05-20T06:50:33;99463.38;;;23.15;53.62
27729;BME280;15126;42.186;24.340;2023-05-20T06:53:00;99456.38;;;23.16;52.41
27729;BME280;15126;42.186;24.340;2023-05-20T06:55:28;99458.81;;;22.69;50.39
27729;BME280;15126;42.186;24.340;2023-05-20T06:57:55;99453.41;;;22.77;54.24
27729;BME280;15126;42.186;24.340;2023-05-20T07:00:22;99457.13;;;23.10;53.88
27729;BME280;15126;42.186;24.340;2023-05-20T07:02:49;99444.03;;;23.41;57.55
27729;BME280;15126;42.186;24.340;2023-05-20T07:05:17;99451.56;;;23.55;53.00
27729;BME280;15126;42.186;24.340;2023-05-20T07:07:44;99459.34;;;23.77;52.12
27729;BME280;15126;42.186;24.340;2023-05-20T07:10:11;99447.69;;;23.91;53.58
27729;BME280;15126;42.186;24.340;2023-05-20T07:12:37;99454.94;;;24.09;53.23
27729;BME280;15126;42.186;24.340;2023-05-20T07:15:05;99454.16;;;24.14;51.17
27729;BME280;15126;42.186;24.340;2023-05-20T07:17:32;99457.72;;;24.48;51.46
27729;BME280;15126;42.186;24.340;2023-05-20T07:19:59;99452.72;;;24.70;56.45
27729;BME280;15126;42.186;24.340;2023-05-20T07:22:27;99441.25;;;24.87;54.02
27729;BME280;15126;42.186;24.340;2023-05-20T07:24:53;99453.41;;;24.93;50.20
27729;BME280;15126;42.186;24.340;2023-05-20T07:27:20;99459.31;;;25.06;45.54
27729;BME280;15126;42.186;24.340;2023-05-20T07:29:47;99455.38;;;25.15;45.72
27729;BME280;15126;42.186;24.340;2023-05-20T07:32:14;99457.69;;;25.22;49.21
27729;BME280;15126;42.186;24.340;2023-05-20T07:34:41;99446.50;;;25.24;53.99
27729;BME280;15126;42.186;24.340;2023-05-20T07:37:08;99462.75;;;25.40;49.20
27729;BME280;15126;42.186;24.340;2023-05-20T07:39:38;99464.53;;;25.54;47.48
27729;BME280;15126;42.186;24.340;2023-05-20T07:42:05;99471.06;;;25.49;47.27
27729;BME280;15126;42.186;24.340;2023-05-20T07:44:32;99464.81;;;25.45;48.42
27729;BME280;15126;42.186;24.340;2023-05-20T07:46:58;99474.88;;;25.57;45.61
27729;BME280;15126;42.186;24.340;2023-05-20T07:49:25;99469.72;;;25.44;47.22
27729;BME280;15126;42.186;24.340;2023-05-20T07:51:52;99468.91;;;25.55;45.75
27729;BME280;15126;42.186;24.340;2023-05-20T07:54:19;99467.72;;;25.75;51.89
27729;BME280;15126;42.186;24.340;2023-05-20T07:56:47;99467.59;;;25.91;50.79
27729;BME280;15126;42.186;24.340;2023-05-20T07:59:14;99458.41;;;25.98;45.95
27729;BME280;15126;42.186;24.340;2023-05-20T08:01:41;99434.13;;;25.86;50.27
27729;BME280;15126;42.186;24.340;2023-05-20T08:04:07;99466.91;;;26.10;46.85
27729;BME280;15126;42.186;24.340;2023-05-20T08:06:34;99474.09;;;26.22;41.61
27729;BME280;15126;42.186;24.340;2023-05-20T08:09:01;99453.47;;;25.99;43.01
27729;BME280;15126;42.186;24.340;2023-05-20T08:11:29;99457.97;;;25.94;42.50
27729;BME280;15126;42.186;24.340;2023-05-20T08:13:57;99435.47;;;25.80;44.76
27729;BME280;15126;42.186;24.340;2023-05-20T08:16:24;99459.63;;;26.14;46.23
27729;BME280;15126;42.186;24.340;2023-05-20T08:18:50;99458.56;;;26.17;44.95
27729;BME280;15126;42.186;24.340;2023-05-20T08:21:17;99458.75;;;26.25;42.55
27729;BME280;15126;42.186;24.340;2023-05-20T08:23:44;99455.34;;;26.26;49.75
27729;BME280;15126;42.186;24.340;2023-05-20T08:26:11;99452.13;;;26.06;41.77
27729;BME280;15126;42.186;24.340;2023-05-20T08:28:37;99453.63;;;26.12;44.66
27729;BME280;15126;42.186;24.340;2023-05-20T08:31:06;99449.72;;;26.15;43.71
27729;BME280;15126;42.186;24.340;2023-05-20T08:33:33;99456.44;;;26.18;43.72
27729;BME280;15126;42.186;24.340;2023-05-20T08:35:59;99454.22;;;26.05;42.15
27729;BME280;15126;42.186;24.340;2023-05-20T08:38:26;99451.06;;;26.14;47.87
27729;BME280;15126;42.186;24.340;2023-05-20T08:40:54;99444.28;;;26.12;40.70
27729;BME280;15126;42.186;24.340;2023-05-20T08:43:21;99449.72;;;26.15;45.23
27729;BME280;15126;42.186;24.340;2023-05-20T08:45:48;99455.63;;;26.23;44.34
27729;BME280;15126;42.186;24.340;2023-05-20T08:48:18;99448.03;;;26.31;46.17
27729;BME280;15126;42.186;24.340;2023-05-20T08:50:49;99455.28;;;26.32;41.39
27729;BME280;15126;42.186;24.340;2023-05-20T08:53:16;99449.66;;;26.45;43.93
27729;BME280;15126;42.186;24.340;2023-05-20T08:55:47;99445.41;;;26.33;42.52
27729;BME280;15126;42.186;24.340;2023-05-20T08:58:14;99444.84;;;26.34;43.44
27729;BME280;15126;42.186;24.340;2023-05-20T09:00:43;99436.56;;;26.55;43.51
27729;BME280;15126;42.186;24.340;2023-05-20T09:03:10;99431.16;;;26.27;41.90
27729;BME280;15126;42.186;24.340;2023-05-20T09:05:38;99436.31;;;26.29;42.92
27729;BME280;15126;42.186;24.340;2023-05-20T09:08:05;99446.13;;;26.39;37.80
27729;BME280;15126;42.186;24.340;2023-05-20T09:10:33;99442.03;;;26.53;37.77
27729;BME280;15126;42.186;24.340;2023-05-20T09:13:00;99443.03;;;26.55;39.43
27729;BME280;15126;42.186;24.340;2023-05-20T09:15:30;99441.91;;;26.64;39.43
27729;BME280;15126;42.186;24.340;2023-05-20T09:17:59;99424.28;;;26.60;41.33
27729;BME280;15126;42.186;24.340;2023-05-20T09:20:27;99432.09;;;26.59;41.46
27729;BME280;15126;42.186;24.340;2023-05-20T09:22:59;99431.31;;;26.59;44.31
27729;BME280;15126;42.186;24.340;2023-05-20T09:25:28;99424.28;;;26.60;42.91
27729;BME280;15126;42.186;24.340;2023-05-20T09:27:55;99429.44;;;26.61;42.05
27729;BME280;15126;42.186;24.340;2023-05-20T09:30:22;99428.53;;;26.72;42.86
27729;BME280;15126;42.186;24.340;2023-05-20T09:32:53;99427.41;;;26.38;42.32
27729;BME280;15126;42.186;24.340;2023-05-20T09:35:20;99426.31;;;26.41;44.04
27729;BME280;15126;42.186;24.340;2023-05-20T09:37:50;99425.31;;;26.38;42.97
27729;BME280;15126;42.186;24.340;2023-05-20T09:40:22;99422.75;;;26.35;42.62
27729;BME280;15126;42.186;24.340;2023-05-20T09:42:52;99388.25;;;26.27;40.41
27729;BME280;15126;42.186;24.340;2023-05-20T09:45:19;99409.97;;;26.60;42.05
27729;BME280;15126;42.186;24.340;2023-05-20T09:47:49;99406.53;;;26.43;41.23
27729;BME280;15126;42.186;24.340;2023-05-20T09:50:16;99406.47;;;26.48;43.99
27729;BME280;15126;42.186;24.340;2023-05-20T09:52:46;99404.69;;;26.64;43.62
27729;BME280;15126;42.186;24.340;2023-05-20T09:55:15;99400.31;;;26.63;40.20
27729;BME280;15126;42.186;24.340;2023-05-20T09:57:45;99409.34;;;26.67;42.51
27729;BME280;15126;42.186;24.340;2023-05-20T10:00:13;99403.63;;;26.67;39.40
27729;BME280;15126;42.186;24.340;2023-05-20T10:02:43;99404.09;;;26.71;44.32
27729;BME280;15126;42.186;24.340;2023-05-20T10:05:15;99397.19;;;26.61;41.74
27729;BME280;15126;42.186;24.340;2023-05-20T10:08:03;99402.22;;;26.55;43.75
27729;BME280;15126;42.186;24.340;2023-05-20T10:10:42;99386.00;;;26.63;44.94
27729;BME280;15126;42.186;24.340;2023-05-20T10:13:29;99382.56;;;26.46;41.30
27729;BME280;15126;42.186;24.340;2023-05-20T10:16:08;99381.06;;;26.39;41.27
27729;BME280;15126;42.186;24.340;2023-05-20T10:18:47;99410.53;;;26.34;41.53
27729;BME280;15126;42.186;24.340;2023-05-20T10:21:19;99385.56;;;26.35;38.24
27729;BME280;15126;42.186;24.340;2023-05-20T10:23:49;99391.38;;;26.48;41.64
27729;BME280;15126;42.186;24.340;2023-05-20T10:26:16;99386.91;;;26.52;40.75
27729;BME280;15126;42.186;24.340;2023-05-20T10:28:45;99381.91;;;26.34;41.06
27729;BME280;15126;42.186;24.340;2023-05-20T10:31:17;99376.72;;;26.57;42.33
27729;BME280;15126;42.186;24.340;2023-05-20T10:33:44;99370.69;;;26.60;40.99
27729;BME280;15126;42.186;24.340;2023-05-20T10:36:21;99382.06;;;26.66;39.85
27729;BME280;15126;42.186;24.340;2023-05-20T10:38:54;99381.72;;;26.51;42.34
27729;BME280;15126;42.186;24.340;2023-05-20T10:41:23;99378.28;;;26.77;41.07
27729;BME280;15126;42.186;24.340;2023-05-20T10:44:02;99390.31;;;26.70;39.43
27729;BME280;15126;42.186;24.340;2023-05-20T10:46:29;99386.81;;;26.58;42.26
27729;BME280;15126;42.186;24.340;2023-05-20T10:48:57;99378.50;;;26.17;40.85
27729;BME280;15126;42.186;24.340;2023-05-20T10:51:24;99407.06;;;25.87;42.18
27729;BME280;15126;42.186;24.340;2023-05-20T10:53:54;99402.81;;;25.34;43.82
27729;BME280;15126;42.186;24.340;2023-05-20T10:56:22;99407.81;;;25.23;43.58
27729;BME280;15126;42.186;24.340;2023-05-20T10:58:49;99406.91;;;25.04;43.61
27729;BME280;15126;42.186;24.340;2023-05-20T11:01:23;99416.00;;;25.02;45.37
27729;BME280;15126;42.186;24.340;2023-05-20T11:03:50;99416.03;;;24.97;41.55
27729;BME280;15126;42.186;24.340;2023-05-20T11:06:17;99411.03;;;25.14;44.50
27729;BME280;15126;42.186;24.340;2023-05-20T11:08:44;99404.25;;;25.11;47.21
27729;BME280;15126;42.186;24.340;2023-05-20T11:11:12;99407.78;;;25.28;48.31
27729;BME280;15126;42.186;24.340;2023-05-20T11:13:40;99403.59;;;25.35;48.51
27729;BME280;15126;42.186;24.340;2023-05-20T11:16:06;99396.38;;;25.28;48.81
27729;BME280;15126;42.186;24.340;2023-05-20T11:18:35;99403.91;;;25.26;50.27
27729;BME280;15126;42.186;24.340;2023-05-20T11:21:02;99402.69;;;25.16;49.28
27729;BME280;15126;42.186;24.340;2023-05-20T11:23:29;99427.75;;;24.88;47.61
27729;BME280;15126;42.186;24.340;2023-05-20T11:25:56;99443.28;;;24.23;49.93
27729;BME280;15126;42.186;24.340;2023-05-20T11:28:24;99453.38;;;23.80;56.82
27729;BME280;15126;42.186;24.340;2023-05-20T11:30:51;99465.72;;;23.22;63.00
27729;BME280;15126;42.186;24.340;2023-05-20T11:33:18;99454.41;;;22.68;68.42
27729;BME280;15126;42.186;24.340;2023-05-20T11:35:48;99452.44;;;22.43;67.69
27729;BME280;15126;42.186;24.340;2023-05-20T11:38:16;99438.88;;;22.21;72.28
27729;BME280;15126;42.186;24.340;2023-05-20T11:40:44;99437.69;;;21.65;75.59
27729;BME280;15126;42.186;24.340;2023-05-20T11:43:12;99433.28;;;21.33;76.73
27729;BME280;15126;42.186;24.340;2023-05-20T11:45:40;99424.81;;;21.39;76.78
27729;BME280;15126;42.186;24.340;2023-05-20T11:48:08;99418.84;;;21.36;79.43
27729;BME280;15126;42.186;24.340;2023-05-20T11:50:37;99419.25;;;21.24;79.15
27729;BME280;15126;42.186;24.340;2023-05-20T11:53:07;99409.22;;;21.28;80.96
27729;BME280;15126;42.186;24.340;2023-05-20T11:55:43;99419.91;;;21.39;83.44
27729;BME280;15126;42.186;24.340;2023-05-20T11:58:11;99413.00;;;21.46;85.93
27729;BME280;15126;42.186;24.340;2023-05-20T12:00:40;99408.41;;;21.54;85.16
27729;BME280;15126;42.186;24.340;2023-05-20T12:03:07;99405.75;;;21.76;85.44
27729;BME280;15126;42.186;24.340;2023-05-20T12:05:34;99393.09;;;22.08;86.56
27729;BME280;15126;42.186;24.340;2023-05-20T12:08:01;99382.38;;;22.34;69.70
27729;BME280;15126;42.186;24.340;2023-05-20T12:10:29;99392.75;;;22.43;67.24
27729;BME280;15126;42.186;24.340;2023-05-20T12:12:56;99394.06;;;22.53;64.87
27729;BME280;15126;42.186;24.340;2023-05-20T12:15:23;99395.47;;;22.69;64.48
27729;BME280;15126;42.186;24.340;2023-05-20T12:17:51;99376.88;;;22.73;57.27
27729;BME280;15126;42.186;24.340;2023-05-20T12:20:21;99371.47;;;22.86;63.71
27729;BME280;15126;42.186;24.340;2023-05-20T12:22:48;99381.81;;;22.84;55.36
27729;BME280;15126;42.186;24.340;2023-05-20T12:25:16;99368.91;;;22.83;57.39
27729;BME280;15126;42.186;24.340;2023-05-20T12:27:46;99375.63;;;22.85;57.48
27729;BME280;15126;42.186;24.340;2023-05-20T12:30:16;99380.28;;;23.05;57.40
27729;BME280;15126;42.186;24.340;2023-05-20T12:32:44;99373.09;;;23.15;53.70
27729;BME280;15126;42.186;24.340;2023-05-20T12:35:12;99365.03;;;23.08;55.09
27729;BME280;15126;42.186;24.340;2023-05-20T12:37:40;99374.69;;;23.38;51.44
27729;BME280;15126;42.186;24.340;2023-05-20T12:40:08;99368.97;;;23.55;54.53
27729;BME280;15126;42.186;24.340;2023-05-20T12:42:35;99374.13;;;23.73;52.84
27729;BME280;15126;42.186;24.340;2023-05-20T12:45:05;99346.66;;;23.92;52.06
27729;BME280;15126;42.186;24.340;2023-05-20T12:47:32;99356.19;;;24.06;52.08
27729;BME280;15126;42.186;24.340;2023-05-20T12:49:59;99354.13;;;24.23;51.57
27729;BME280;15126;42.186;24.340;2023-05-20T12:52:26;99344.81;;;24.17;49.26